Thunder radar more information blitzortung!


Radar de pluja more information rain snow radar


Visita la nostra xarxa de llocs de meteo:

Template documentation
and downloads

And another site



Extreme low temperature From: 23-02-2018 00:00 Until: 09:59 warning for: Extreme low temperature Level: Yellow info button

Pagina Historial Weather Underground text

Diari Resum Desembre 5, 2017 Unitats:  Imperial    Mètric   Tant
« Previous Dia
SegĂźent Dia »
Diari Setmana Mensual Anual Personalitzada
  Maxima: Minima: Media:
Temperatura: TemperatureC °F 0.0 °F 6.6 °F
Punt de rosada: DewpointC °F -8.7 °F -5.4 °F
Humitat: Humidity % 31 % 44 %
Wind Speed: WindSpeedKMH mph 0.0 mph 2.5 mph
RĂ fegues de vent: WindSpeedGustKMH mph - -
Vent:- - ESE
Pression baro: PressurehPa in 1023.9 in -
Precipitacions: 0.0 in    
Historical Graphs
 
 
Dades de taula per Desembre 5, 2017
Temps Temperatura Punt de rosada Pression baro Vent Wind Speed RĂ fegues de vent Humitat Rainfall Rate (Hourly)
TemperatureC °F DewpointC °F PressurehPa in Calm     Humidity % HourlyPrecipMM in
00:00 7.4 °F -8.7 °F 1023.9 in East 3.2 mph 3.2 mph 31 % 0.0 in
00:05 7.4 °F -8.7 °F 1023.9 in East 3.2 mph 3.2 mph 31 % 0.0 in
00:14 7.4 °F -8.7 °F 1023.9 in East 3.2 mph 3.2 mph 31 % 0.0 in
00:15 0.4 °F -7.8 °F 1034.8 in Calm     54 % 0.0 in
00:20 7.4 °F -8.7 °F 1023.9 in East 3.2 mph 3.2 mph 31 % 0.0 in
00:25 7.4 °F -8.7 °F 1023.9 in East 3.2 mph 3.2 mph 31 % 0.0 in
00:30 7.4 °F -8.7 °F 1023.9 in East 3.2 mph 3.2 mph 31 % 0.0 in
00:35 7.4 °F -8.7 °F 1023.9 in East 3.2 mph 3.2 mph 31 % 0.0 in
00:40 7.4 °F -8.7 °F 1023.9 in East 3.2 mph 3.2 mph 31 % 0.0 in
00:45 7.4 °F -8.7 °F 1023.9 in East 3.2 mph 3.2 mph 31 % 0.0 in
00:50 7.4 °F -8.7 °F 1023.9 in East 3.2 mph 3.2 mph 31 % 0.0 in
00:55 7.4 °F -8.7 °F 1023.9 in East 3.2 mph 3.2 mph 31 % 0.0 in
01:00 7.4 °F -8.7 °F 1023.9 in East 3.2 mph 3.2 mph 31 % 0.0 in
01:05 7.4 °F -8.7 °F 1023.9 in East 3.2 mph 3.2 mph 31 % 0.0 in
01:10 7.4 °F -8.7 °F 1023.9 in East 3.2 mph 3.2 mph 31 % 0.0 in
01:15 7.4 °F -8.7 °F 1023.9 in East 3.2 mph 3.2 mph 31 % 0.0 in
01:20 7.4 °F -8.7 °F 1023.9 in East 3.2 mph 3.2 mph 31 % 0.0 in
01:25 7.4 °F -8.7 °F 1023.9 in East 3.2 mph 3.2 mph 31 % 0.0 in
01:30 7.4 °F -8.7 °F 1023.9 in East 3.2 mph 3.2 mph 31 % 0.0 in
01:35 7.4 °F -8.7 °F 1023.9 in East 3.2 mph 3.2 mph 31 % 0.0 in
01:40 7.4 °F -8.7 °F 1023.9 in East 3.2 mph 3.2 mph 31 % 0.0 in
01:45 7.4 °F -8.7 °F 1023.9 in East 3.2 mph 3.2 mph 31 % 0.0 in
01:50 7.4 °F -8.7 °F 1023.9 in East 3.2 mph 3.2 mph 31 % 0.0 in
01:55 7.4 °F -8.7 °F 1023.9 in East 3.2 mph 3.2 mph 31 % 0.0 in
02:01 7.4 °F -8.7 °F 1023.9 in East 3.2 mph 3.2 mph 31 % 0.0 in
02:05 0.5 °F -7.1 °F 1035.8 in NW 3.2 mph 3.2 mph 57 % 0.0 in
02:10 7.4 °F -8.7 °F 1023.9 in East 3.2 mph 3.2 mph 31 % 0.0 in
02:15 7.4 °F -8.7 °F 1023.9 in East 3.2 mph 3.2 mph 31 % 0.0 in
02:20 7.4 °F -8.7 °F 1023.9 in East 3.2 mph 3.2 mph 31 % 0.0 in
02:25 0.7 °F -6.6 °F 1035.8 in NNW 1.6 mph 3.2 mph 58 % 0.0 in
02:30 7.4 °F -8.7 °F 1023.9 in East 3.2 mph 3.2 mph 31 % 0.0 in
02:35 1.0 °F -6.3 °F 1035.8 in North 1.6 mph 3.2 mph 58 % 0.0 in
02:40 7.4 °F -8.7 °F 1023.9 in East 3.2 mph 3.2 mph 31 % 0.0 in
02:45 7.4 °F -8.7 °F 1023.9 in East 3.2 mph 3.2 mph 31 % 0.0 in
02:50 7.4 °F -8.7 °F 1023.9 in East 3.2 mph 3.2 mph 31 % 0.0 in
02:55 7.4 °F -8.7 °F 1023.9 in East 3.2 mph 3.2 mph 31 % 0.0 in
03:00 7.4 °F -8.7 °F 1023.9 in East 3.2 mph 3.2 mph 31 % 0.0 in
03:05 7.4 °F -8.7 °F 1023.9 in East 3.2 mph 3.2 mph 31 % 0.0 in
03:10 7.4 °F -8.7 °F 1023.9 in East 3.2 mph 3.2 mph 31 % 0.0 in
03:15 7.4 °F -8.7 °F 1023.9 in East 3.2 mph 3.2 mph 31 % 0.0 in
03:20 7.4 °F -8.7 °F 1023.9 in East 3.2 mph 3.2 mph 31 % 0.0 in
03:25 7.4 °F -8.7 °F 1023.9 in East 3.2 mph 3.2 mph 31 % 0.0 in
03:30 7.4 °F -8.7 °F 1023.9 in East 3.2 mph 3.2 mph 31 % 0.0 in
03:35 7.4 °F -8.7 °F 1023.9 in East 3.2 mph 3.2 mph 31 % 0.0 in
03:40 7.4 °F -8.7 °F 1023.9 in East 3.2 mph 3.2 mph 31 % 0.0 in
03:45 7.4 °F -8.7 °F 1023.9 in East 3.2 mph 3.2 mph 31 % 0.0 in
03:50 7.4 °F -8.7 °F 1023.9 in East 3.2 mph 3.2 mph 31 % 0.0 in
03:55 7.4 °F -8.7 °F 1023.9 in East 3.2 mph 3.2 mph 31 % 0.0 in
04:05 7.4 °F -8.7 °F 1023.9 in East 3.2 mph 3.2 mph 31 % 0.0 in
04:10 7.4 °F -8.7 °F 1023.9 in East 3.2 mph 3.2 mph 31 % 0.0 in
04:15 7.4 °F -8.7 °F 1023.9 in East 3.2 mph 3.2 mph 31 % 0.0 in
04:20 7.4 °F -8.7 °F 1023.9 in East 3.2 mph 3.2 mph 31 % 0.0 in
04:25 7.4 °F -8.7 °F 1023.9 in East 3.2 mph 3.2 mph 31 % 0.0 in
04:30 7.4 °F -8.7 °F 1023.9 in East 3.2 mph 3.2 mph 31 % 0.0 in
04:35 7.4 °F -8.7 °F 1023.9 in East 3.2 mph 3.2 mph 31 % 0.0 in
04:40 7.4 °F -8.7 °F 1023.9 in East 3.2 mph 3.2 mph 31 % 0.0 in
04:45 7.4 °F -8.7 °F 1023.9 in East 3.2 mph 3.2 mph 31 % 0.0 in
04:50 7.4 °F -8.7 °F 1023.9 in East 3.2 mph 3.2 mph 31 % 0.0 in
04:55 7.4 °F -8.7 °F 1023.9 in East 3.2 mph 3.2 mph 31 % 0.0 in
05:00 7.4 °F -8.7 °F 1023.9 in East 3.2 mph 3.2 mph 31 % 0.0 in
05:05 7.4 °F -8.7 °F 1023.9 in East 3.2 mph 3.2 mph 31 % 0.0 in
05:10 7.4 °F -8.7 °F 1023.9 in East 3.2 mph 3.2 mph 31 % 0.0 in
05:15 7.4 °F -8.7 °F 1023.9 in East 3.2 mph 3.2 mph 31 % 0.0 in
05:20 7.4 °F -8.7 °F 1023.9 in East 3.2 mph 3.2 mph 31 % 0.0 in
05:25 7.4 °F -8.7 °F 1023.9 in East 3.2 mph 3.2 mph 31 % 0.0 in
05:35 7.4 °F -8.7 °F 1023.9 in East 3.2 mph 3.2 mph 31 % 0.0 in
05:40 7.4 °F -8.7 °F 1023.9 in East 3.2 mph 3.2 mph 31 % 0.0 in
05:45 7.4 °F -8.7 °F 1023.9 in East 3.2 mph 3.2 mph 31 % 0.0 in
05:50 7.4 °F -8.7 °F 1023.9 in East 3.2 mph 3.2 mph 31 % 0.0 in
05:55 7.4 °F -8.7 °F 1023.9 in East 3.2 mph 3.2 mph 31 % 0.0 in
06:05 7.4 °F -8.7 °F 1023.9 in East 3.2 mph 3.2 mph 31 % 0.0 in
06:10 7.4 °F -8.7 °F 1023.9 in East 3.2 mph 3.2 mph 31 % 0.0 in
06:15 7.4 °F -8.7 °F 1023.9 in East 3.2 mph 3.2 mph 31 % 0.0 in
06:20 7.4 °F -8.7 °F 1023.9 in East 3.2 mph 3.2 mph 31 % 0.0 in
06:25 7.4 °F -8.7 °F 1023.9 in East 3.2 mph 3.2 mph 31 % 0.0 in
06:30 7.4 °F -8.7 °F 1023.9 in East 3.2 mph 3.2 mph 31 % 0.0 in
06:35 7.4 °F -8.7 °F 1023.9 in East 3.2 mph 3.2 mph 31 % 0.0 in
06:40 7.4 °F -8.7 °F 1023.9 in East 3.2 mph 3.2 mph 31 % 0.0 in
06:45 7.4 °F -8.7 °F 1023.9 in East 3.2 mph 3.2 mph 31 % 0.0 in
06:50 7.4 °F -8.7 °F 1023.9 in East 3.2 mph 3.2 mph 31 % 0.0 in
06:55 7.4 °F -8.7 °F 1023.9 in East 3.2 mph 3.2 mph 31 % 0.0 in
07:00 7.4 °F -8.7 °F 1023.9 in East 3.2 mph 3.2 mph 31 % 0.0 in
07:05 7.4 °F -8.7 °F 1023.9 in East 3.2 mph 3.2 mph 31 % 0.0 in
07:10 7.4 °F -8.7 °F 1023.9 in East 3.2 mph 3.2 mph 31 % 0.0 in
07:15 7.4 °F -8.7 °F 1023.9 in East 3.2 mph 3.2 mph 31 % 0.0 in
07:20 7.4 °F -8.7 °F 1023.9 in East 3.2 mph 3.2 mph 31 % 0.0 in
07:25 7.4 °F -8.7 °F 1023.9 in East 3.2 mph 3.2 mph 31 % 0.0 in
07:30 7.4 °F -8.7 °F 1023.9 in East 3.2 mph 3.2 mph 31 % 0.0 in
07:35 7.4 °F -8.7 °F 1023.9 in East 3.2 mph 3.2 mph 31 % 0.0 in
07:40 7.4 °F -8.7 °F 1023.9 in East 3.2 mph 3.2 mph 31 % 0.0 in
07:45 7.4 °F -8.7 °F 1023.9 in East 3.2 mph 3.2 mph 31 % 0.0 in
07:50 7.4 °F -8.7 °F 1023.9 in East 3.2 mph 3.2 mph 31 % 0.0 in
07:55 7.4 °F -8.7 °F 1023.9 in East 3.2 mph 3.2 mph 31 % 0.0 in
08:00 7.4 °F -8.7 °F 1023.9 in East 3.2 mph 3.2 mph 31 % 0.0 in
08:05 7.4 °F -8.7 °F 1023.9 in East 3.2 mph 3.2 mph 31 % 0.0 in
08:10 7.4 °F -8.7 °F 1023.9 in East 3.2 mph 3.2 mph 31 % 0.0 in
08:15 7.4 °F -8.7 °F 1023.9 in East 3.2 mph 3.2 mph 31 % 0.0 in
08:20 7.4 °F -8.7 °F 1023.9 in East 3.2 mph 3.2 mph 31 % 0.0 in
08:25 7.4 °F -8.7 °F 1023.9 in East 3.2 mph 3.2 mph 31 % 0.0 in
08:30 7.4 °F -8.7 °F 1023.9 in East 3.2 mph 3.2 mph 31 % 0.0 in
08:35 7.4 °F -8.7 °F 1023.9 in East 3.2 mph 3.2 mph 31 % 0.0 in
08:40 7.4 °F -8.7 °F 1023.9 in East 3.2 mph 3.2 mph 31 % 0.0 in
08:45 7.4 °F -8.7 °F 1023.9 in East 3.2 mph 3.2 mph 31 % 0.0 in
08:50 7.4 °F -8.7 °F 1023.9 in East 3.2 mph 3.2 mph 31 % 0.0 in
08:55 7.4 °F -8.7 °F 1023.9 in East 3.2 mph 3.2 mph 31 % 0.0 in
09:00 7.4 °F -8.7 °F 1023.9 in East 3.2 mph 3.2 mph 31 % 0.0 in
09:05 7.4 °F -8.7 °F 1023.9 in East 3.2 mph 3.2 mph 31 % 0.0 in
09:10 7.4 °F -8.7 °F 1023.9 in East 3.2 mph 3.2 mph 31 % 0.0 in
09:15 7.4 °F -8.7 °F 1023.9 in East 3.2 mph 3.2 mph 31 % 0.0 in
09:20 7.4 °F -8.7 °F 1023.9 in East 3.2 mph 3.2 mph 31 % 0.0 in
09:25 7.4 °F -8.7 °F 1023.9 in East 3.2 mph 3.2 mph 31 % 0.0 in
09:30 7.4 °F -8.7 °F 1023.9 in East 3.2 mph 3.2 mph 31 % 0.0 in
09:35 7.4 °F -8.7 °F 1023.9 in East 3.2 mph 3.2 mph 31 % 0.0 in
09:40 7.4 °F -8.7 °F 1023.9 in East 3.2 mph 3.2 mph 31 % 0.0 in
09:45 7.4 °F -8.7 °F 1023.9 in East 3.2 mph 3.2 mph 31 % 0.0 in
09:50 7.4 °F -8.7 °F 1023.9 in East 3.2 mph 3.2 mph 31 % 0.0 in
09:55 7.4 °F -8.7 °F 1023.9 in East 3.2 mph 3.2 mph 31 % 0.0 in
10:00 7.4 °F -8.7 °F 1023.9 in East 3.2 mph 3.2 mph 31 % 0.0 in
10:05 7.4 °F -8.7 °F 1023.9 in East 3.2 mph 3.2 mph 31 % 0.0 in
10:10 7.4 °F -8.7 °F 1023.9 in East 3.2 mph 3.2 mph 31 % 0.0 in
10:15 7.4 °F -8.7 °F 1023.9 in East 3.2 mph 3.2 mph 31 % 0.0 in
10:20 7.4 °F -8.7 °F 1023.9 in East 3.2 mph 3.2 mph 31 % 0.0 in
10:25 7.4 °F -8.7 °F 1023.9 in East 3.2 mph 3.2 mph 31 % 0.0 in
10:30 7.4 °F -8.7 °F 1023.9 in East 3.2 mph 3.2 mph 31 % 0.0 in
10:35 7.4 °F -8.7 °F 1023.9 in East 3.2 mph 3.2 mph 31 % 0.0 in
10:40 7.4 °F -8.7 °F 1023.9 in East 3.2 mph 3.2 mph 31 % 0.0 in
10:45 7.4 °F -8.7 °F 1023.9 in East 3.2 mph 3.2 mph 31 % 0.0 in
10:50 7.4 °F -8.7 °F 1023.9 in East 3.2 mph 3.2 mph 31 % 0.0 in
10:55 7.4 °F -8.7 °F 1023.9 in East 3.2 mph 3.2 mph 31 % 0.0 in
11:00 7.4 °F -8.7 °F 1023.9 in East 3.2 mph 3.2 mph 31 % 0.0 in
11:05 7.4 °F -8.7 °F 1023.9 in East 3.2 mph 3.2 mph 31 % 0.0 in
11:10 7.4 °F -8.7 °F 1023.9 in East 3.2 mph 3.2 mph 31 % 0.0 in
11:15 7.4 °F -8.7 °F 1023.9 in East 3.2 mph 3.2 mph 31 % 0.0 in
11:20 7.4 °F -8.7 °F 1023.9 in East 3.2 mph 3.2 mph 31 % 0.0 in
11:25 7.4 °F -8.7 °F 1023.9 in East 3.2 mph 3.2 mph 31 % 0.0 in
11:30 7.4 °F -8.7 °F 1023.9 in East 3.2 mph 3.2 mph 31 % 0.0 in
11:35 7.4 °F -8.7 °F 1023.9 in East 3.2 mph 3.2 mph 31 % 0.0 in
11:40 7.4 °F -8.7 °F 1023.9 in East 3.2 mph 3.2 mph 31 % 0.0 in
11:45 7.4 °F -8.7 °F 1023.9 in East 3.2 mph 3.2 mph 31 % 0.0 in
11:50 7.4 °F -8.7 °F 1023.9 in East 3.2 mph 3.2 mph 31 % 0.0 in
11:55 7.4 °F -8.7 °F 1023.9 in East 3.2 mph 3.2 mph 31 % 0.0 in
12:00 7.4 °F -8.7 °F 1023.9 in East 3.2 mph 3.2 mph 31 % 0.0 in
12:05 7.4 °F -8.7 °F 1023.9 in East 3.2 mph 3.2 mph 31 % 0.0 in
12:10 7.4 °F -8.7 °F 1023.9 in East 3.2 mph 3.2 mph 31 % 0.0 in
12:15 7.4 °F -8.7 °F 1023.9 in East 3.2 mph 3.2 mph 31 % 0.0 in
12:20 7.4 °F -8.7 °F 1023.9 in East 3.2 mph 3.2 mph 31 % 0.0 in
12:25 7.4 °F -8.7 °F 1023.9 in East 3.2 mph 3.2 mph 31 % 0.0 in
12:30 7.4 °F -8.7 °F 1023.9 in East 3.2 mph 3.2 mph 31 % 0.0 in
12:35 7.4 °F -8.7 °F 1023.9 in East 3.2 mph 3.2 mph 31 % 0.0 in
12:40 7.4 °F -8.7 °F 1023.9 in East 3.2 mph 3.2 mph 31 % 0.0 in
12:45 7.4 °F -8.7 °F 1023.9 in East 3.2 mph 3.2 mph 31 % 0.0 in
12:55 7.4 °F -8.7 °F 1023.9 in East 3.2 mph 3.2 mph 31 % 0.0 in
13:00 7.4 °F -8.7 °F 1023.9 in East 3.2 mph 3.2 mph 31 % 0.0 in
13:15 7.9 °F -0.8 °F 1035.8 in NNE 5.8 mph 5.8 mph 54 % 0.0 in
13:20 8.1 °F -0.7 °F 1035.8 in NE 9.3 mph 9.3 mph 54 % 0.0 in
13:25 8.2 °F -0.6 °F 1035.8 in ENE 4.2 mph 4.2 mph 54 % 0.0 in
13:30 8.5 °F -0.3 °F 1035.8 in NNE 4.7 mph 4.7 mph 54 % 0.0 in
13:35 8.6 °F -0.2 °F 1035.8 in ESE 9.3 mph 9.3 mph 54 % 0.0 in
13:40 8.7 °F -0.1 °F 1035.8 in ENE 5.6 mph 5.6 mph 54 % 0.0 in
13:45 8.7 °F -0.3 °F 1034.8 in NNE 5.6 mph 5.6 mph 53 % 0.0 in
13:50 8.7 °F -0.3 °F 1034.8 in ENE 3.7 mph 3.7 mph 53 % 0.0 in
13:55 8.8 °F -0.3 °F 1034.8 in WNW 3.9 mph 3.9 mph 53 % 0.0 in
14:00 8.9 °F -0.2 °F 1034.8 in NNE 7.4 mph 7.4 mph 53 % 0.0 in
14:05 9.0 °F -0.1 °F 1034.8 in WNW 3.7 mph 3.7 mph 53 % 0.0 in
14:10 9.0 °F -0.1 °F 1034.8 in NNE 3.7 mph 3.7 mph 53 % 0.0 in
14:15 9.2 °F 0.1 °F 1034.8 in North 4.7 mph 4.7 mph 53 % 0.0 in
14:20 9.2 °F 0.1 °F 1034.8 in NNE 3.7 mph 3.7 mph 53 % 0.0 in
14:25 9.3 °F 0.2 °F 1034.8 in ENE 3.9 mph 3.9 mph 53 % 0.0 in
14:30 9.4 °F 0.3 °F 1034.8 in NNE 2.6 mph 2.6 mph 53 % 0.0 in
14:35 9.4 °F 0.3 °F 1034.8 in North 3.7 mph 3.7 mph 53 % 0.0 in
14:40 9.4 °F 0.3 °F 1034.8 in ENE 3.7 mph 3.7 mph 53 % 0.0 in
14:45 9.4 °F 0.0 °F 1034.8 in NE 7.4 mph 7.4 mph 52 % 0.0 in
14:50 9.4 °F 0.0 °F 1034.8 in NNE 3.7 mph 3.7 mph 52 % 0.0 in
14:55 9.6 °F 0.2 °F 1034.8 in NNW 2.3 mph 2.3 mph 52 % 0.0 in
15:00 9.6 °F 0.2 °F 1034.8 in NNW 2.3 mph 2.3 mph 52 % 0.0 in
15:05 9.7 °F 0.3 °F 1034.8 in North 3.7 mph 3.7 mph 52 % 0.0 in
15:10 9.8 °F 0.4 °F 1034.8 in NE 3.7 mph 3.7 mph 52 % 0.0 in
15:15 9.8 °F 0.4 °F 1033.7 in NE 3.7 mph 3.7 mph 52 % 0.0 in
15:20 9.7 °F 0.3 °F 1033.7 in NNW 3.7 mph 3.7 mph 52 % 0.0 in
15:25 9.8 °F 0.4 °F 1033.7 in NNE 4.7 mph 4.7 mph 52 % 0.0 in
15:30 9.8 °F 0.4 °F 1032.7 in NE 3.7 mph 3.7 mph 52 % 0.0 in
15:35 9.9 °F 0.5 °F 1032.7 in NE 1.9 mph 1.9 mph 52 % 0.0 in
15:40 9.9 °F 0.5 °F 1032.7 in NE 4.2 mph 4.2 mph 52 % 0.0 in
15:45 9.9 °F 0.5 °F 1033.7 in NW 3.7 mph 3.7 mph 52 % 0.0 in
15:50 10.0 °F 0.6 °F 1033.7 in NNW 1.9 mph   52 % 0.0 in
15:56 9.9 °F 0.5 °F 1033.7 in NNW 2.6 mph 2.6 mph 52 % 0.0 in
16:01 10.0 °F 0.6 °F 1033.7 in Calm     52 % 0.0 in
16:06 10.0 °F 0.6 °F 1033.7 in ENE 1.9 mph   52 % 0.0 in
16:11 9.9 °F 0.5 °F 1033.7 in North 1.9 mph 1.9 mph 52 % 0.0 in
16:16 9.9 °F 0.5 °F 1033.7 in NNE 2.3 mph 2.3 mph 52 % 0.0 in
16:21 9.9 °F 0.5 °F 1033.7 in Calm     52 % 0.0 in
16:26 9.9 °F 0.5 °F 1033.7 in NNW 2.6 mph 2.6 mph 52 % 0.0 in
16:31 9.9 °F 0.5 °F 1033.7 in NNE 1.9 mph   52 % 0.0 in
16:36 9.8 °F 0.4 °F 1033.7 in NNE 1.9 mph 1.9 mph 52 % 0.0 in
16:41 9.7 °F 0.3 °F 1033.7 in NNW 1.9 mph   52 % 0.0 in
16:46 9.7 °F 0.3 °F 1033.7 in Calm     52 % 0.0 in
16:51 9.7 °F 0.3 °F 1033.7 in North 2.6 mph 2.6 mph 52 % 0.0 in
16:56 9.6 °F 0.2 °F 1033.7 in NNE 1.9 mph 1.9 mph 52 % 0.0 in
17:01 9.4 °F 0.0 °F 1033.7 in Calm     52 % 0.0 in
17:06 9.3 °F -0.1 °F 1033.7 in NW 1.9 mph   52 % 0.0 in
17:11 9.2 °F -0.2 °F 1033.7 in NW 1.9 mph   52 % 0.0 in
17:16 9.1 °F -0.3 °F 1033.7 in Calm     52 % 0.0 in
17:21 8.9 °F -0.4 °F 1033.7 in Calm     52 % 0.0 in
17:26 8.8 °F -0.6 °F 1033.7 in WNW 1.9 mph   52 % 0.0 in
17:31 8.6 °F -0.7 °F 1033.7 in Calm     52 % 0.0 in
17:36 8.5 °F -0.8 °F 1033.7 in Calm     52 % 0.0 in
17:41 8.4 °F -0.9 °F 1033.7 in Calm     52 % 0.0 in
17:46 8.3 °F -1.0 °F 1033.7 in NW 1.9 mph   52 % 0.0 in
17:51 8.2 °F -1.1 °F 1033.7 in NW 2.3 mph   52 % 0.0 in
17:56 8.1 °F -1.2 °F 1033.7 in SW 1.9 mph 1.9 mph 52 % 0.0 in
18:01 8.0 °F -1.3 °F 1033.7 in Calm     52 % 0.0 in
18:06 7.9 °F -1.4 °F 1033.7 in Calm     52 % 0.0 in
18:11 7.8 °F -1.4 °F 1033.7 in Calm     52 % 0.0 in
18:16 7.9 °F -1.4 °F 1033.7 in Calm     52 % 0.0 in
18:21 7.8 °F -1.4 °F 1033.7 in Calm     52 % 0.0 in
18:25 2.4 °F -4.6 °F 1034.8 in Calm     60 % 0.0 in
18:26 7.8 °F -1.4 °F 1033.7 in WSW 2.6 mph 2.6 mph 52 % 0.0 in
18:31 7.8 °F -1.4 °F 1032.7 in Calm     52 % 0.0 in
18:35 2.4 °F -4.6 °F 1034.8 in Calm     60 % 0.0 in
18:36 7.7 °F -1.6 °F 1032.7 in WSW 2.3 mph   52 % 0.0 in
18:41 7.6 °F -1.7 °F 1032.7 in Calm     52 % 0.0 in
18:45 2.4 °F -4.4 °F 1034.8 in Calm     61 % 0.0 in
18:46 7.4 °F -1.8 °F 1033.7 in WSW 1.9 mph   52 % 0.0 in
18:51 7.3 °F -1.9 °F 1033.7 in South 3.9 mph 3.9 mph 52 % 0.0 in
18:55 2.2 °F -4.6 °F 1034.8 in Calm     61 % 0.0 in
18:56 7.2 °F -2.0 °F 1033.7 in Calm     52 % 0.0 in
19:01 7.1 °F -2.1 °F 1033.7 in SW 1.9 mph   52 % 0.0 in
19:05 2.1 °F -4.7 °F 1034.8 in Calm     61 % 0.0 in
19:06 7.1 °F -2.1 °F 1033.7 in SW 3.7 mph 3.7 mph 52 % 0.0 in
19:11 7.2 °F -2.0 °F 1033.7 in West 3.7 mph 3.7 mph 52 % 0.0 in
19:15 2.0 °F -4.7 °F 1034.8 in Calm     61 % 0.0 in
19:16 7.2 °F -2.0 °F 1033.7 in West 3.7 mph 3.7 mph 52 % 0.0 in
19:21 7.2 °F -2.0 °F 1033.7 in WSW 3.7 mph 3.7 mph 52 % 0.0 in
19:25 2.1 °F -4.4 °F 1034.8 in Calm     62 % 0.0 in
19:26 7.1 °F -2.4 °F 1033.7 in West 3.7 mph 3.7 mph 51 % 0.0 in
19:31 7.0 °F -2.4 °F 1034.8 in WSW 3.7 mph 3.7 mph 51 % 0.0 in
19:35 1.9 °F -4.6 °F 1034.8 in Calm     62 % 0.0 in
19:36 6.9 °F -2.6 °F 1034.8 in SW 3.7 mph 3.7 mph 51 % 0.0 in
19:41 6.7 °F -2.7 °F 1034.8 in SW 3.7 mph 3.7 mph 51 % 0.0 in
19:45 1.8 °F -4.7 °F 1034.8 in Calm     62 % 0.0 in
19:46 6.5 °F -2.7 °F 1033.7 in Calm     52 % 0.0 in
19:51 6.4 °F -2.8 °F 1033.7 in Calm     52 % 0.0 in
19:55 1.7 °F -4.8 °F 1033.7 in Calm     62 % 0.0 in
19:56 6.3 °F -2.8 °F 1033.7 in Calm     52 % 0.0 in
20:01 6.2 °F -2.9 °F 1033.7 in Calm     52 % 0.0 in
20:05 1.6 °F -4.9 °F 1034.8 in Calm     62 % 0.0 in
20:06 6.2 °F -2.9 °F 1033.7 in WNW 2.3 mph 2.3 mph 52 % 0.0 in
20:11 6.1 °F -3.1 °F 1033.7 in WNW 2.3 mph 2.3 mph 52 % 0.0 in
20:15 1.5 °F -5.0 °F 1034.8 in SSW 1.6 mph 1.6 mph 62 % 0.0 in
20:16 6.2 °F -2.9 °F 1034.8 in Calm     52 % 0.0 in
20:21 6.0 °F -3.1 °F 1034.8 in NNW 1.9 mph 1.9 mph 52 % 0.0 in
20:25 1.4 °F -5.1 °F 1033.7 in SSW 1.6 mph 3.2 mph 62 % 0.0 in
20:26 6.0 °F -3.1 °F 1034.8 in NNE 1.9 mph 2.3 mph 52 % 0.0 in
20:31 6.0 °F -3.1 °F 1034.8 in Calm     52 % 0.0 in
20:35 1.3 °F -5.2 °F 1033.7 in SW 1.6 mph 3.2 mph 62 % 0.0 in
20:36 5.9 °F -3.2 °F 1034.8 in NNE 1.9 mph   52 % 0.0 in
20:41 5.9 °F -3.2 °F 1034.8 in Calm     52 % 0.0 in
20:45 1.3 °F -5.2 °F 1033.7 in Calm   3.2 mph 62 % 0.0 in
20:46 6.0 °F -3.1 °F 1034.8 in Calm     52 % 0.0 in
20:51 6.1 °F -3.1 °F 1034.8 in NNE 1.9 mph   52 % 0.0 in
20:55 1.3 °F -5.0 °F 1033.7 in WSW 3.2 mph 3.2 mph 63 % 0.0 in
20:56 6.1 °F -3.1 °F 1034.8 in Calm     52 % 0.0 in
21:01 6.1 °F -2.8 °F 1034.8 in Calm     53 % 0.0 in
21:05 1.3 °F -5.0 °F 1033.7 in Calm   4.8 mph 63 % 0.0 in
21:06 6.1 °F -2.8 °F 1034.8 in NNW 2.6 mph   53 % 0.0 in
21:11 6.0 °F -2.9 °F 1034.8 in NNW 1.9 mph   53 % 0.0 in
21:15 1.4 °F -4.9 °F 1033.7 in Calm   3.2 mph 63 % 0.0 in
21:16 5.9 °F -2.9 °F 1034.8 in Calm     53 % 0.0 in
21:21 5.7 °F -3.2 °F 1034.8 in WNW 3.7 mph 3.7 mph 53 % 0.0 in
21:25 1.2 °F -5.1 °F 1033.7 in Calm   1.6 mph 63 % 0.0 in
21:26 5.4 °F -3.4 °F 1034.8 in West 3.7 mph 3.7 mph 53 % 0.0 in
21:31 5.1 °F -3.7 °F 1034.8 in WSW 3.7 mph 3.7 mph 53 % 0.0 in
21:35 1.0 °F -5.3 °F 1033.7 in Calm   3.2 mph 63 % 0.0 in
21:36 5.1 °F -3.7 °F 1034.8 in SW 3.7 mph 3.7 mph 53 % 0.0 in
21:41 4.9 °F -3.9 °F 1034.8 in WSW 3.7 mph 3.7 mph 53 % 0.0 in
21:45 0.8 °F -5.4 °F 1033.7 in Calm   1.6 mph 63 % 0.0 in
21:46 4.9 °F -3.9 °F 1034.8 in SW 3.7 mph 3.9 mph 53 % 0.0 in
21:51 4.5 °F -4.3 °F 1034.8 in SW 3.9 mph 3.9 mph 53 % 0.0 in
21:55 0.7 °F -5.3 °F 1033.7 in Calm   1.6 mph 64 % 0.0 in
21:56 4.5 °F -4.3 °F 1034.8 in WSW 3.9 mph 3.9 mph 53 % 0.0 in
22:01 4.5 °F -4.3 °F 1034.8 in WSW 3.7 mph 3.7 mph 53 % 0.0 in
22:05 0.7 °F -5.3 °F 1033.7 in Calm     64 % 0.0 in
22:06 4.4 °F -4.1 °F 1034.8 in Calm     54 % 0.0 in
22:11 4.3 °F -4.2 °F 1034.8 in Calm     54 % 0.0 in
22:15 0.7 °F -5.3 °F 1033.7 in Calm   1.6 mph 64 % 0.0 in
22:16 4.4 °F -4.1 °F 1034.8 in WSW 1.9 mph 2.3 mph 54 % 0.0 in
22:21 4.4 °F -4.1 °F 1034.8 in Calm     54 % 0.0 in
22:25 0.8 °F -5.1 °F 1033.7 in Calm   3.2 mph 65 % 0.0 in
22:26 4.3 °F -3.9 °F 1034.8 in North 1.9 mph   55 % 0.0 in
22:31 4.1 °F -4.2 °F 1034.8 in NE 3.7 mph 3.7 mph 55 % 0.0 in
22:35 0.7 °F -5.3 °F 1033.7 in Calm     64 % 0.0 in
22:36 4.0 °F -4.2 °F 1034.8 in NNE 2.6 mph   55 % 0.0 in
22:41 4.1 °F -3.9 °F 1034.8 in NNE 1.9 mph   56 % 0.0 in
22:45 0.6 °F -5.2 °F 1033.7 in Calm     65 % 0.0 in
22:46 3.9 °F -4.3 °F 1034.8 in Calm     55 % 0.0 in
22:51 3.8 °F -4.2 °F 1034.8 in Calm     56 % 0.0 in
22:55 0.0 °F -6.0 °F 1033.7 in Calm   3.2 mph 64 % 0.0 in
22:56 3.8 °F -4.2 °F 1034.8 in Calm     56 % 0.0 in
23:01 3.7 °F -4.3 °F 1034.8 in Calm     56 % 0.0 in
23:05 0.2 °F -5.6 °F 1033.7 in West 1.6 mph 3.2 mph 65 % 0.0 in
23:06 3.6 °F -4.4 °F 1034.8 in Calm     56 % 0.0 in
23:11 3.6 °F -4.4 °F 1034.8 in SSW 1.9 mph 1.9 mph 56 % 0.0 in
23:15 0.2 °F -5.6 °F 1033.7 in Calm   3.2 mph 65 % 0.0 in
23:16 3.5 °F -4.4 °F 1034.8 in Calm     56 % 0.0 in
23:21 3.4 °F -4.3 °F 1034.8 in Calm     57 % 0.0 in
23:25 0.2 °F -5.6 °F 1033.7 in Calm   3.2 mph 65 % 0.0 in
23:26 3.3 °F -4.4 °F 1034.8 in Calm     57 % 0.0 in
23:31 3.2 °F -4.5 °F 1034.8 in Calm     57 % 0.0 in
23:35 0.1 °F -5.5 °F 1033.7 in Calm   1.6 mph 66 % 0.0 in
23:36 3.2 °F -4.3 °F 1034.8 in Calm     58 % 0.0 in
23:45 0.0 °F -5.8 °F 1033.7 in WSW 1.6 mph 3.2 mph 65 % 0.0 in
23:46 3.0 °F -4.4 °F 1034.8 in SSW 1.9 mph 1.9 mph 58 % 0.0 in
23:51 2.9 °F -4.6 °F 1034.8 in Calm     58 % 0.0 in
23:55 0.1 °F -5.7 °F 1033.7 in WSW 1.6 mph 3.2 mph 65 % 0.0 in
23:56 2.8 °F -4.7 °F 1034.8 in Calm     58 % 0.0 in
Meteo Sesrovires
Elogis d' Weather Underground - 4.25 mb

Guio original per  Jim McMurry - jmcmurry@mwt.net Adaptat per a la plantilla per  Wim van der Kuil - Leuven-Template.eu

Trobareu la nostra informacio del temps tambe a:

Weather Underground

AWEKAS